Accueil
METAR-TAF:

METAR-TAF

Aéroports :

Aéroport d'Oujda-Angads

Oujda, Maroc

latitude: 34-47N, longitude: 001-56W, altitude: 468 m

Observation

Le bulletin a été fait il y a 18 minutes, à 19:30 UTC
Vent 12 kt de nord-ouest
Température 18°C
Humidité 83%
Pression 1014 hPa
Visibilité: 8000 m
Nuages épars à une hauteur de 1000 ft
Nuages fragmentés à une hauteur de 3300 ft

METAR: GMFO 311930Z 32012KT 8000 SCT010 BKN033 18/15 Q1014 NOSIG

Heure: 20:48 (19:48 UTC)

Prévision

Le bulletin a été fait il y a 2 heures et 48 minutes, à 17:00 UTC
Prévision valable du 31 à 18 UTC au 01 à 24 UTC
Vent 19 kt de nord-ouest
Visibilité 10 km ou plus
Quelques nuages à une hauteur de 2000 ft
Nuages fragmentés à une hauteur de 23000 ft
Probabilité 40% :
Temporairement
du 31 à 22 UTC au 01 à 08 UTC
Visibilité: 2000 m
Nuages fragmentés à une hauteur de 300 ft
brume

TAF: GMFO 311700Z 3118/0124 32019KT 9999 FEW020 BKN230 PROB40 TEMPO 3122/0108 2000 BR BKN003

Observations et prévisions météorologiques de plus de 4000 aéroports (messages METAR et TAF).

Les stations disponibles sont représentées par des disques jaunes et rouges sur la carte.

Passer la souris dessus pour voir le nom de la station.

Cliquer dessus pour voir les observations et prévisions météorologiques.

Pour changer de carte: cliquez sur les boutons verts avec une croix noire pour zoomer, sur le bouton vert avec un tiret pour effectuer un zoom arrière, ou sur les flèches vertes pour les cartes adjacentes.


METAR-TAF: